Time;durP1;ratioP1;P1;durP2;ratioP2;P2;SDS_P1;SDS_P2;PMS_P1;PMS_P2;Temp;Humidity;BMP_temperature;BMP_pressure;BME280_temperature;BME280_humidity;BME280_pressure;Samples;Min_cycle;Max_cycle;Signal;HPM_P1;HPM_P2
2022/07/12 00:00:47;;;;;;;1.92;1.40;;;;;;;23.39;46.59;102158.75;5013280;28;20384;-63
2022/07/12 00:03:12;;;;;;;2.47;1.65;;;;;;;23.34;46.51;102161.97;5011965;28;20030;-63
2022/07/12 00:05:38;;;;;;;1.92;1.70;;;;;;;23.31;46.04;102162.34;5013152;28;20354;-62
2022/07/12 00:08:03;;;;;;;2.85;1.67;;;;;;;23.26;46.10;102164.78;5011999;28;20029;-62
2022/07/12 00:10:29;;;;;;;2.38;1.52;;;;;;;23.22;46.39;102163.44;5013081;28;20022;-62
2022/07/12 00:12:54;;;;;;;1.40;1.30;;;;;;;23.22;46.72;102163.44;4995750;28;20176;-62
2022/07/12 00:15:20;;;;;;;4.18;1.48;;;;;;;23.17;46.80;102160.41;4995409;28;20026;-62
2022/07/12 00:17:46;;;;;;;1.88;1.67;;;;;;;23.16;46.85;102164.16;4995741;28;20171;-62
2022/07/12 00:20:11;;;;;;;2.35;0.90;;;;;;;23.13;47.08;102169.97;5011841;28;20050;-62
2022/07/12 00:22:37;;;;;;;3.13;1.52;;;;;;;23.08;46.04;102169.66;5011711;28;20117;-62
2022/07/12 00:25:03;;;;;;;2.58;2.10;;;;;;;23.06;46.66;102172.56;5013023;28;20159;-62
2022/07/12 00:27:28;;;;;;;1.80;1.67;;;;;;;23.02;46.92;102162.16;5011913;28;20399;-62
2022/07/12 00:29:54;;;;;;;4.18;1.58;;;;;;;23.00;46.64;102158.78;5015486;28;20026;-63
2022/07/12 00:32:19;;;;;;;2.30;1.35;;;;;;;23.00;46.17;102150.56;4998977;28;20028;-62
2022/07/12 00:34:45;;;;;;;1.67;1.58;;;;;;;22.96;47.02;102146.47;5016418;28;20392;-62
2022/07/12 00:37:10;;;;;;;2.33;1.23;;;;;;;22.96;46.81;102146.47;5015260;28;20025;-62
2022/07/12 00:39:35;;;;;;;1.80;1.63;;;;;;;22.92;47.24;102134.22;5016924;28;20056;-62
2022/07/12 00:42:01;;;;;;;2.97;1.40;;;;;;;22.88;46.57;102130.97;4998833;28;20483;-62
2022/07/12 00:44:26;;;;;;;3.30;1.20;;;;;;;22.86;46.87;102134.91;4998713;28;20036;-62
2022/07/12 00:46:52;;;;;;;1.45;1.35;;;;;;;22.82;46.56;102122.63;4998809;28;20025;-62
2022/07/12 00:49:18;;;;;;;4.00;1.88;;;;;;;22.80;47.32;102128.28;5015062;28;20029;-62
2022/07/12 00:51:44;;;;;;;2.25;1.85;;;;;;;22.78;46.94;102126.75;5014998;28;20471;-63
2022/07/12 00:54:10;;;;;;;7.57;1.83;;;;;;;22.76;46.30;102135.13;4982500;28;20026;-62
2022/07/12 00:56:35;;;;;;;2.72;1.55;;;;;;;22.72;46.35;102136.50;4998441;28;20475;-62
2022/07/12 00:59:01;;;;;;;2.15;1.63;;;;;;;22.70;46.66;102132.25;5014939;28;20069;-62
2022/07/12 01:01:27;;;;;;;5.47;1.60;;;;;;;22.67;46.27;102132.59;5014845;28;20454;-62
2022/07/12 01:03:52;;;;;;;2.70;1.52;;;;;;;22.60;47.11;102119.63;5014691;28;20026;-62
2022/07/12 01:06:20;;;;;;;1.33;1.23;;;;;;;22.58;46.35;102129.84;4982141;28;20084;-62
2022/07/12 01:08:45;;;;;;;2.03;1.77;;;;;;;22.52;47.00;102127.84;5014681;28;20483;-62
2022/07/12 01:11:11;;;;;;;2.78;1.60;;;;;;;22.52;46.60;102136.03;5015934;28;20060;-62
2022/07/12 01:13:37;;;;;;;4.30;2.70;;;;;;;22.46;47.18;102128.53;5014638;28;20033;-61
2022/07/12 01:16:03;;;;;;;5.65;1.88;;;;;;;22.47;46.63;102143.03;5014526;28;20486;-62
2022/07/12 01:18:29;;;;;;;2.78;2.35;;;;;;;22.47;46.53;102146.59;5014460;28;20026;-62
2022/07/12 01:20:54;;;;;;;4.25;1.90;;;;;;;22.45;46.94;102131.41;5014730;28;20030;-62
2022/07/12 01:23:21;;;;;;;6.68;2.00;;;;;;;22.43;46.95;102141.69;4997958;28;20030;-62
2022/07/12 01:25:46;;;;;;;3.22;2.25;;;;;;;22.43;46.77;102139.81;4998151;28;20377;-62
2022/07/12 01:28:12;;;;;;;1.90;1.52;;;;;;;22.43;46.80;102138.94;5014344;28;20056;-62
2022/07/12 01:30:37;;;;;;;3.75;1.45;;;;;;;22.42;47.25;102143.56;5014399;28;20029;-61
2022/07/12 01:33:04;;;;;;;1.15;1.05;;;;;;;22.34;47.29;102135.38;4997768;28;20117;-62
2022/07/12 01:35:30;;;;;;;2.78;2.15;;;;;;;22.32;46.76;102139.31;5015471;28;20030;-62
2022/07/12 01:37:56;;;;;;;2.40;1.50;;;;;;;22.28;46.73;102138.81;5014066;28;20033;-62
2022/07/12 01:40:21;;;;;;;1.95;1.00;;;;;;;22.24;47.33;102142.91;4997325;28;20041;-62
2022/07/12 01:42:48;;;;;;;4.15;1.05;;;;;;;22.20;46.85;102138.81;4997705;28;20385;-62
2022/07/12 01:45:13;;;;;;;2.38;1.20;;;;;;;22.16;47.33;102148.41;5013957;28;20029;-62
2022/07/12 01:47:39;;;;;;;1.58;1.05;;;;;;;22.16;46.73;102142.94;5014052;28;20029;-62
2022/07/12 01:50:09;;;;;;;1.00;0.63;;;;;;;22.12;47.24;102144.28;5014947;28;20112;-63
2022/07/12 01:52:54;;;;;;;0.82;0.82;;;;;;;22.10;46.96;102150.94;5013798;28;20113;-62
2022/07/12 01:55:20;;;;;;;1.20;1.10;;;;;;;22.06;46.83;102150.44;5012356;28;20488;-63
2022/07/12 01:57:46;;;;;;;1.88;1.10;;;;;;;21.99;46.81;102142.09;4997409;28;20084;-62
2022/07/12 02:00:12;;;;;;;1.70;1.23;;;;;;;21.99;46.40;102163.94;5014853;28;20495;-62
2022/07/12 02:02:38;;;;;;;4.78;1.30;;;;;;;21.94;47.29;102149.91;5013668;28;20032;-62
2022/07/12 02:05:04;;;;;;;2.53;1.10;;;;;;;21.93;46.39;102150.09;5013697;28;20026;-63
2022/07/12 02:07:30;;;;;;;2.33;1.70;;;;;;;21.91;47.38;102149.44;5013806;28;20484;-63
2022/07/12 02:09:56;;;;;;;2.55;2.15;;;;;;;21.88;47.21;102155.22;5013623;28;20057;-63
2022/07/12 02:12:21;;;;;;;2.05;1.85;;;;;;;21.85;46.89;102155.53;5014708;28;20057;-63
2022/07/12 02:14:47;;;;;;;3.35;1.98;;;;;;;21.83;47.37;102146.69;5014625;28;20113;-63
2022/07/12 02:17:12;;;;;;;1.95;1.85;;;;;;;21.82;47.42;102155.88;4997139;28;20034;-62
2022/07/12 02:19:37;;;;;;;4.03;2.08;;;;;;;21.80;46.65;102152.47;5014585;28;20076;-62
2022/07/12 02:22:03;;;;;;;2.40;1.95;;;;;;;21.78;47.02;102149.03;5013309;28;20084;-62
2022/07/12 02:24:28;;;;;;;3.50;2.20;;;;;;;21.77;47.54;102152.81;5013292;28;20029;-63
2022/07/12 02:26:54;;;;;;;2.08;1.63;;;;;;;21.78;46.94;102154.50;5013308;28;20021;-63
2022/07/12 02:29:20;;;;;;;2.50;1.40;;;;;;;21.78;46.94;102154.50;4996869;28;20534;-63
2022/07/12 02:31:45;;;;;;;1.67;1.30;;;;;;;21.76;47.06;102151.09;4997098;28;20065;-63
2022/07/12 02:34:10;;;;;;;2.47;1.00;;;;;;;21.73;47.55;102146.81;5014246;28;20054;-62
2022/07/12 02:36:36;;;;;;;1.80;1.45;;;;;;;21.70;46.96;102151.75;5013073;28;20087;-62
2022/07/12 02:39:03;;;;;;;2.60;2.00;;;;;;;21.68;47.04;102148.34;5013101;28;20037;-63
2022/07/12 02:41:30;;;;;;;3.47;1.30;;;;;;;21.65;47.63;102154.16;4997126;28;20386;-63
2022/07/12 02:43:55;;;;;;;2.17;1.50;;;;;;;21.60;47.30;102154.66;5012981;28;20030;-63
2022/07/12 02:46:21;;;;;;;2.15;1.63;;;;;;;21.58;46.84;102150.41;5012983;28;20541;-63
2022/07/12 02:48:46;;;;;;;2.17;1.50;;;;;;;21.53;46.96;102156.34;4996409;28;20064;-63
2022/07/12 02:51:11;;;;;;;2.83;1.45;;;;;;;21.50;46.82;102150.41;4995722;28;20125;-63
2022/07/12 02:53:37;;;;;;;2.75;1.38;;;;;;;21.51;46.48;102152.09;5012803;28;20077;-63
2022/07/12 02:56:03;;;;;;;2.13;1.40;;;;;;;21.46;47.07;102161.63;5013976;28;20030;-63
2022/07/12 02:58:28;;;;;;;2.05;1.55;;;;;;;21.45;46.69;102157.19;4996378;28;20029;-63
2022/07/12 03:00:54;;;;;;;1.95;1.80;;;;;;;21.45;47.44;102165.38;5012710;28;20037;-63
2022/07/12 03:03:19;;;;;;;4.35;1.95;;;;;;;21.44;47.49;102163.66;5014009;28;20022;-62
2022/07/12 03:05:45;;;;;;;1.70;1.50;;;;;;;21.43;47.10;102161.97;5013812;28;20114;-62
2022/07/12 03:08:11;;;;;;;1.50;1.40;;;;;;;21.40;47.32;102156.84;4996292;28;20403;-63
2022/07/12 03:10:37;;;;;;;2.40;1.60;;;;;;;21.39;46.77;102166.03;5012937;28;20395;-62
2022/07/12 03:13:03;;;;;;;1.95;1.75;;;;;;;21.37;46.66;102162.63;4996126;28;20014;-63
2022/07/12 03:15:30;;;;;;;2.78;2.08;;;;;;;21.37;46.77;102161.78;4996179;28;20026;-63
2022/07/12 03:17:55;;;;;;;2.58;2.13;;;;;;;21.34;46.99;102159.38;4996177;28;20108;-63
2022/07/12 03:20:21;;;;;;;3.15;2.25;;;;;;;21.35;47.02;102158.38;5012541;28;20435;-63
2022/07/12 03:22:48;;;;;;;4.55;2.50;;;;;;;21.34;47.32;102162.97;4996036;28;20052;-62
2022/07/12 03:25:14;;;;;;;2.70;2.28;;;;;;;21.33;47.24;102160.38;5012426;28;20026;-63
2022/07/12 03:27:40;;;;;;;1.92;1.65;;;;;;;21.31;47.15;102152.38;4996016;28;20113;-63
2022/07/12 03:30:06;;;;;;;2.08;1.45;;;;;;;21.26;46.97;102153.91;4995970;28;20026;-62
2022/07/12 03:32:32;;;;;;;2.17;1.90;;;;;;;21.25;47.21;102158.50;4996273;28;20033;-63
2022/07/12 03:34:57;;;;;;;2.60;2.13;;;;;;;21.22;47.19;102158.81;5012255;28;20024;-63
2022/07/12 03:37:23;;;;;;;3.40;2.80;;;;;;;21.25;47.70;102163.09;4979695;28;20033;-63
2022/07/12 03:39:48;;;;;;;2.38;2.17;;;;;;;21.25;47.18;102163.94;5012228;28;20116;-63
2022/07/12 03:42:13;;;;;;;2.65;1.58;;;;;;;21.23;47.62;102166.00;5012090;28;20026;-63
2022/07/12 03:44:39;;;;;;;2.95;2.13;;;;;;;21.23;47.80;102160.53;5012033;28;20065;-63
2022/07/12 03:47:04;;;;;;;6.13;2.10;;;;;;;21.21;47.03;102153.56;4995756;28;20084;-63
2022/07/12 03:49:30;;;;;;;2.70;2.20;;;;;;;21.23;46.86;102166.00;4995738;28;20407;-63
2022/07/12 03:51:55;;;;;;;2.60;2.20;;;;;;;21.22;47.47;102163.41;4995716;28;20061;-63
2022/07/12 03:54:20;;;;;;;3.22;2.33;;;;;;;21.25;47.10;102166.69;5013442;28;20022;-63
2022/07/12 03:59:30;;;;;;;2.17;1.17;;;;;;;21.22;46.82;102163.41;5013234;28;20068;-63
2022/07/12 04:01:55;;;;;;;1.50;1.23;;;;;;;21.20;47.61;102166.31;5013005;28;20038;-63
2022/07/12 04:04:21;;;;;;;1.95;1.25;;;;;;;21.17;47.36;102163.94;5015824;28;20503;-63
2022/07/12 04:06:46;;;;;;;2.03;1.58;;;;;;;21.15;47.75;102165.97;4999515;28;20101;-62
2022/07/12 04:09:12;;;;;;;4.05;1.45;;;;;;;21.16;47.59;102175.00;5016406;28;20081;-63
2022/07/12 04:11:37;;;;;;;2.97;2.25;;;;;;;21.16;47.05;102173.13;5016981;28;20036;-63
2022/07/12 04:14:02;;;;;;;3.75;2.08;;;;;;;21.16;47.69;102164.94;5015720;28;20073;-63
2022/07/12 04:16:29;;;;;;;2.22;2.00;;;;;;;21.18;47.55;102168.38;5015752;28;20384;-63
2022/07/12 04:18:55;;;;;;;3.65;2.88;;;;;;;21.19;47.46;102163.78;4999587;28;20077;-63
2022/07/12 04:21:20;;;;;;;2.88;2.42;;;;;;;21.20;47.50;102170.91;4999216;28;20573;-63
2022/07/12 04:23:46;;;;;;;3.17;2.78;;;;;;;21.23;47.34;102163.28;5016677;28;20083;-63
2022/07/12 04:26:11;;;;;;;8.43;3.15;;;;;;;21.31;47.18;102176.91;4983005;28;20033;-63
2022/07/12 04:28:37;;;;;;;3.72;3.00;;;;;;;21.34;47.49;102173.88;4999088;28;20041;-62
2022/07/12 04:31:02;;;;;;;4.97;3.10;;;;;;;21.44;47.43;102174.56;5015511;28;20041;-63
2022/07/12 04:33:28;;;;;;;3.22;2.53;;;;;;;21.49;47.60;102160.44;5015266;28;20054;-63
2022/07/12 04:35:53;;;;;;;3.38;2.42;;;;;;;21.59;48.27;102173.91;5015464;28;20025;-63
2022/07/12 04:38:19;;;;;;;3.03;2.15;;;;;;;21.66;47.46;102172.22;5015477;28;20111;-63
2022/07/12 04:40:44;;;;;;;3.30;2.42;;;;;;;21.73;47.04;102173.25;5016462;28;20041;-62
2022/07/12 04:43:09;;;;;;;2.15;1.95;;;;;;;21.78;47.50;102170.84;5015274;28;20373;-62
2022/07/12 04:45:35;;;;;;;4.97;2.40;;;;;;;21.83;47.52;102173.97;5016406;28;20101;-63
2022/07/12 04:48:00;;;;;;;3.67;2.65;;;;;;;21.90;48.42;102180.47;5015197;28;20106;-63
2022/07/12 04:50:25;;;;;;;2.78;2.22;;;;;;;22.00;47.23;102181.13;4998614;28;20038;-63
2022/07/12 04:52:51;;;;;;;5.45;2.72;;;;;;;22.13;47.52;102192.41;5015128;28;20050;-62
2022/07/12 04:55:16;;;;;;;3.00;2.42;;;;;;;22.25;47.37;102190.19;5014993;28;20033;-63
2022/07/12 04:57:42;;;;;;;3.58;2.53;;;;;;;22.39;47.66;102190.31;4982372;28;20034;-63
2022/07/12 05:00:08;;;;;;;3.72;2.50;;;;;;;22.52;47.69;102181.59;4998709;28;20086;-63
2022/07/12 05:02:33;;;;;;;3.55;3.00;;;;;;;22.71;46.95;102186.72;5014784;28;20030;-62
2022/07/12 05:04:59;;;;;;;2.88;2.58;;;;;;;22.86;46.87;102184.09;5014730;28;20033;-63
2022/07/12 05:07:24;;;;;;;3.58;2.97;;;;;;;23.02;47.36;102184.03;5014860;28;20121;-63
2022/07/12 05:09:51;;;;;;;3.70;3.10;;;;;;;23.16;47.31;102180.56;5014568;28;20049;-63
2022/07/12 05:12:16;;;;;;;4.00;3.45;;;;;;;23.32;47.57;102183.19;5014674;28;20030;-63
2022/07/12 05:14:42;;;;;;;9.73;4.07;;;;;;;23.46;47.15;102171.53;5013806;28;20018;-63
2022/07/12 05:17:07;;;;;;;7.47;3.45;;;;;;;23.63;46.68;102184.06;5014605;28;20484;-63
2022/07/12 05:19:33;;;;;;;5.18;3.33;;;;;;;23.77;46.53;102175.09;5015670;28;20030;-63
2022/07/12 05:21:58;;;;;;;8.93;4.03;;;;;;;23.96;46.81;102183.81;4998311;28;20030;-63
2022/07/12 05:24:23;;;;;;;5.63;3.42;;;;;;;24.14;46.34;102189.88;5014298;28;20053;-63
2022/07/12 05:26:49;;;;;;;7.82;3.75;;;;;;;24.31;46.92;102180.47;5014503;28;20030;-63
2022/07/12 05:29:14;;;;;;;6.30;3.28;;;;;;;24.49;47.12;102178.22;5014424;28;20058;-62
2022/07/12 05:31:39;;;;;;;7.55;4.00;;;;;;;24.64;46.70;102173.63;5014373;28;20033;-63
2022/07/12 05:34:05;;;;;;;6.03;4.07;;;;;;;24.81;46.67;102175.16;5013994;28;20053;-63
2022/07/12 05:36:30;;;;;;;6.28;3.75;;;;;;;24.99;46.47;102171.16;4990177;28;20060;-63
2022/07/12 05:38:56;;;;;;;7.60;3.45;;;;;;;25.21;45.92;102183.91;5003132;28;20045;-63
2022/07/12 05:41:21;;;;;;;13.77;4.63;;;;;;;25.40;46.24;102186.06;4985955;28;20029;-63
2022/07/12 05:43:46;;;;;;;9.63;4.70;;;;;;;25.60;46.08;102181.66;5005217;28;20037;-63
2022/07/12 05:46:12;;;;;;;6.63;3.55;;;;;;;25.79;45.79;102186.53;4999094;28;20072;-63
2022/07/12 05:48:38;;;;;;;7.40;4.03;;;;;;;25.97;45.79;102197.03;4994487;28;20022;-63
2022/07/12 05:53:47;;;;;;;8.35;5.05;;;;;;;26.44;45.44;102201.91;4994189;28;20060;-63
2022/07/12 05:56:13;;;;;;;8.40;4.78;;;;;;;26.68;44.81;102204.22;4994203;28;20066;-63
2022/07/12 05:58:39;;;;;;;9.10;4.78;;;;;;;26.92;45.12;102194.63;4977925;28;20507;-63
2022/07/12 06:01:05;;;;;;;6.95;4.13;;;;;;;27.04;44.63;102193.03;4994191;28;20543;-64
2022/07/12 06:03:31;;;;;;;5.88;4.55;;;;;;;27.10;44.54;102190.31;4994050;28;20023;-63
2022/07/12 06:05:56;;;;;;;6.03;4.13;;;;;;;27.29;44.88;102201.59;4995185;28;20370;-63
2022/07/12 06:08:21;;;;;;;6.40;4.78;;;;;;;27.45;44.77;102201.25;4993992;28;20034;-64
2022/07/12 06:10:47;;;;;;;6.80;4.53;;;;;;;27.65;44.06;102202.16;4993786;28;20558;-64
2022/07/12 06:13:13;;;;;;;6.10;4.45;;;;;;;27.97;44.09;102211.56;4994091;28;20053;-63
2022/07/12 06:15:38;;;;;;;6.22;4.70;;;;;;;28.06;44.24;102211.19;4993972;28;20117;-64
2022/07/12 06:18:03;;;;;;;8.45;4.43;;;;;;;28.29;43.61;102217.13;4994972;28;20395;-64
2022/07/12 06:20:29;;;;;;;8.38;5.00;;;;;;;28.48;43.61;102214.56;4977500;28;20030;-63
2022/07/12 06:22:55;;;;;;;7.75;4.70;;;;;;;28.61;43.93;102215.44;4977439;28;20368;-63
2022/07/12 06:25:21;;;;;;;8.05;4.20;;;;;;;28.63;42.87;102215.22;4992637;28;20049;-64
2022/07/12 06:27:47;;;;;;;8.93;4.07;;;;;;;28.67;42.95;102222.84;4993671;28;20030;-64
2022/07/12 06:30:17;;;;;;;5.63;4.22;;;;;;;28.78;42.92;102216.69;4993451;28;20034;-64
2022/07/12 06:32:44;;;;;;;6.95;3.97;;;;;;;28.98;42.88;102222.16;4994577;28;20034;-64
2022/07/12 06:35:09;;;;;;;7.07;4.75;;;;;;;29.13;42.13;102231.03;4994764;28;20387;-64
2022/07/12 06:37:35;;;;;;;8.40;3.78;;;;;;;29.34;41.99;102222.47;4977069;28;20120;-65
2022/07/12 06:40:00;;;;;;;5.07;3.90;;;;;;;29.57;41.67;102234.91;4977192;28;20400;-64
2022/07/12 06:42:26;;;;;;;7.85;3.83;;;;;;;29.73;41.40;102228.91;4994541;28;20113;-63
2022/07/12 06:44:51;;;;;;;6.30;3.60;;;;;;;29.84;41.81;102231.00;4994498;28;20038;-64
2022/07/12 06:47:16;;;;;;;5.28;3.78;;;;;;;30.00;41.55;102233.22;4992975;28;20130;-63
2022/07/12 06:49:42;;;;;;;6.13;4.47;;;;;;;30.14;41.57;102240.34;4993140;28;20062;-65
2022/07/12 06:52:07;;;;;;;10.52;4.03;;;;;;;30.26;41.16;102233.03;4993186;28;20084;-65
2022/07/12 06:54:32;;;;;;;6.38;3.78;;;;;;;30.36;40.86;102230.59;4994297;28;20057;-64
2022/07/12 06:56:58;;;;;;;7.03;4.40;;;;;;;30.55;41.10;102231.50;4994313;28;20030;-65
2022/07/12 06:59:23;;;;;;;6.40;4.18;;;;;;;30.62;40.86;102232.31;4994308;28;20532;-65
2022/07/12 07:01:49;;;;;;;11.68;3.53;;;;;;;30.63;41.20;102236.75;4976751;28;20207;-65
2022/07/12 07:04:14;;;;;;;6.22;3.38;;;;;;;30.73;40.89;102236.25;4992943;28;20132;-65
2022/07/12 07:06:40;;;;;;;6.35;3.25;;;;;;;30.71;40.66;102235.63;4994255;28;20026;-65
2022/07/12 07:09:07;;;;;;;4.85;3.60;;;;;;;30.77;40.96;102230.00;4994186;28;20030;-64
2022/07/12 07:11:33;;;;;;;7.57;3.45;;;;;;;30.86;40.72;102228.66;4994099;28;20026;-64
2022/07/12 07:13:58;;;;;;;7.15;3.55;;;;;;;30.99;40.44;102223.00;4992826;28;20045;-64
2022/07/12 07:16:24;;;;;;;5.07;3.53;;;;;;;31.08;39.97;102229.06;4992839;28;20026;-65
2022/07/12 07:18:50;;;;;;;6.82;3.35;;;;;;;31.10;40.35;102229.72;4993985;28;20026;-65
2022/07/12 07:21:15;;;;;;;5.97;3.90;;;;;;;31.23;40.02;102242.53;4993958;28;20034;-65
2022/07/12 07:23:41;;;;;;;6.35;3.65;;;;;;;31.35;39.60;102235.97;4992702;28;20032;-65
2022/07/12 07:26:06;;;;;;;7.85;3.35;;;;;;;31.50;39.35;102239.22;4976588;28;20030;-65
2022/07/12 07:28:31;;;;;;;5.25;3.78;;;;;;;31.70;39.02;102237.03;4992706;28;20611;-65
2022/07/12 07:30:58;;;;;;;6.15;4.10;;;;;;;31.86;38.58;102234.66;4993977;28;20463;-65
2022/07/12 07:33:24;;;;;;;5.78;4.13;;;;;;;32.12;38.05;102248.19;4993740;28;20050;-65
2022/07/12 07:35:51;;;;;;;3.80;3.33;;;;;;;32.43;37.92;102241.50;4992912;28;20058;-65
2022/07/12 07:38:17;;;;;;;4.80;3.05;;;;;;;32.65;37.28;102240.69;4993520;28;20034;-65
2022/07/12 07:40:43;;;;;;;5.80;3.00;;;;;;;32.78;37.56;102240.44;4993783;28;20038;-65
2022/07/12 07:43:09;;;;;;;3.33;2.83;;;;;;;33.01;36.92;102244.28;4992558;28;20443;-65
2022/07/12 07:45:34;;;;;;;3.85;3.00;;;;;;;33.28;37.25;102245.47;4992624;28;20088;-65
2022/07/12 07:48:00;;;;;;;6.82;2.65;;;;;;;33.51;36.71;102237.06;4976284;28;20530;-65
2022/07/12 07:50:26;;;;;;;3.22;2.72;;;;;;;33.68;36.18;102235.22;4976232;28;20072;-65
2022/07/12 07:52:51;;;;;;;3.53;2.60;;;;;;;33.88;35.73;102241.19;4992522;28;20484;-65
2022/07/12 07:55:17;;;;;;;4.22;2.30;;;;;;;34.01;36.26;102241.94;4993687;28;20028;-65
2022/07/12 07:57:43;;;;;;;6.43;2.80;;;;;;;34.12;35.37;102249.41;4976460;28;20054;-66
2022/07/12 08:00:09;;;;;;;2.67;2.13;;;;;;;34.25;35.30;102249.97;4976216;28;20109;-65
2022/07/12 08:02:35;;;;;;;4.15;2.10;;;;;;;34.36;34.40;102254.59;4992476;28;20510;-65
2022/07/12 08:05:00;;;;;;;4.18;1.95;;;;;;;34.48;34.41;102251.72;4993475;28;20034;-64
2022/07/12 08:07:26;;;;;;;1.80;1.70;;;;;;;34.61;33.78;102256.13;4993528;28;20054;-65
2022/07/12 08:09:52;;;;;;;1.75;1.58;;;;;;;34.70;33.89;102254.63;4992354;28;20061;-65
2022/07/12 08:12:17;;;;;;;3.50;1.33;;;;;;;34.80;33.44;102255.63;4993542;28;20030;-65
2022/07/12 08:14:42;;;;;;;1.50;1.40;;;;;;;34.95;33.69;102250.25;4993464;28;20030;-65
2022/07/12 08:17:08;;;;;;;3.90;2.00;;;;;;;35.01;33.38;102240.88;4993416;28;20476;-65
2022/07/12 08:19:33;;;;;;;2.80;2.05;;;;;;;35.09;33.03;102225.69;4992171;28;20117;-65
2022/07/12 08:21:59;;;;;;;1.17;1.08;;;;;;;35.21;33.02;102229.19;4993531;28;20431;-64
2022/07/12 08:24:24;;;;;;;1.65;1.50;;;;;;;35.31;32.42;102218.19;4993392;28;20366;-65
2022/07/12 08:26:50;;;;;;;2.05;1.42;;;;;;;35.46;32.12;102220.28;4992190;28;20054;-65
2022/07/12 08:29:15;;;;;;;2.28;2.08;;;;;;;35.53;32.37;102223.72;4993469;28;20324;-65
2022/07/12 08:31:41;;;;;;;3.67;1.42;;;;;;;35.58;32.44;102218.25;4992154;28;20027;-65
2022/07/12 08:34:06;;;;;;;3.15;1.58;;;;;;;35.62;32.41;102206.28;4991826;28;20081;-65
2022/07/12 08:36:31;;;;;;;3.05;1.50;;;;;;;35.76;32.19;102203.09;4993279;28;20038;-65
2022/07/12 08:38:57;;;;;;;3.95;2.00;;;;;;;35.79;31.84;102203.41;4993259;28;20092;-66
2022/07/12 08:41:22;;;;;;;4.15;1.70;;;;;;;35.78;32.65;102200.88;4993323;28;20536;-66
2022/07/12 08:43:47;;;;;;;2.53;2.33;;;;;;;35.68;32.28;102204.38;4993253;28;20073;-65
2022/07/12 08:46:14;;;;;;;2.78;1.70;;;;;;;35.61;31.50;102206.56;4992008;28;20035;-65
2022/07/12 08:48:40;;;;;;;1.70;1.55;;;;;;;35.53;31.99;102205.06;4992296;28;20435;-65
2022/07/12 08:51:08;;;;;;;1.85;1.42;;;;;;;35.63;31.52;102209.91;4995445;28;20385;-65
2022/07/12 08:53:33;;;;;;;1.90;1.23;;;;;;;35.57;32.41;102199.81;4996734;28;20022;-65
2022/07/12 08:55:59;;;;;;;3.50;1.67;;;;;;;35.52;31.74;102208.94;4995477;28;20026;-65
2022/07/12 08:58:25;;;;;;;2.35;2.15;;;;;;;35.54;31.45;102208.69;4995264;28;20022;-65
2022/07/12 09:00:50;;;;;;;1.85;1.65;;;;;;;35.54;31.58;102205.91;4995355;28;20392;-65
2022/07/12 09:03:16;;;;;;;3.67;2.20;;;;;;;35.53;31.34;102205.06;4995178;28;20469;-65
2022/07/12 09:05:59;;;;;;;1.73;1.63;;;;;;;35.88;31.12;102204.59;4996455;28;20026;-65
2022/07/12 09:08:32;;;;;;;2.30;2.13;;;;;;;36.24;30.88;102204.97;4996395;28;20023;-65
2022/07/12 09:10:58;;;;;;;3.55;2.35;;;;;;;36.44;30.80;102211.53;4995172;28;20034;-65
2022/07/12 09:13:46;;;;;;;4.65;1.60;;;;;;;36.60;30.53;102209.75;4994935;28;20022;-65
2022/07/12 09:16:13;;;;;;;2.33;1.90;;;;;;;36.66;30.71;102208.63;4994999;28;20026;-65
2022/07/12 09:18:39;;;;;;;5.80;2.08;;;;;;;36.73;30.28;102215.69;4996192;28;20520;-65
2022/07/12 09:21:04;;;;;;;2.78;2.08;;;;;;;36.91;30.43;102214.38;4994862;28;20065;-65
2022/07/12 09:23:30;;;;;;;3.20;2.10;;;;;;;37.10;30.10;102212.00;4996133;28;20045;-65
2022/07/12 09:25:56;;;;;;;2.90;1.63;;;;;;;37.21;30.64;102214.59;4978756;28;20507;-65
2022/07/12 09:28:21;;;;;;;1.48;1.15;;;;;;;37.26;29.86;102211.81;4995936;28;20046;-65
2022/07/12 09:30:48;;;;;;;5.38;2.28;;;;;;;37.34;29.44;102222.47;4994875;28;20480;-65
2022/07/12 09:36:13;;;;;;;2.08;1.58;;;;;;;37.50;29.22;102219.72;4994949;28;20048;-65
2022/07/12 09:39:00;;;;;;;3.05;1.50;;;;;;;37.65;28.67;102228.19;4979827;28;20069;-65
2022/07/12 09:41:26;;;;;;;1.10;1.10;;;;;;;37.88;29.35;102227.72;4994722;28;20104;-65
2022/07/12 09:43:52;;;;;;;2.53;1.92;;;;;;;38.14;28.84;102237.78;4978220;28;20596;-65
2022/07/12 09:46:18;;;;;;;2.15;1.30;;;;;;;38.31;29.35;102226.31;4994597;28;20080;-64
2022/07/12 09:48:44;;;;;;;1.20;1.10;;;;;;;38.41;28.61;102227.19;4994334;28;20035;-64
2022/07/12 09:51:13;;;;;;;2.00;1.40;;;;;;;38.47;27.66;102227.19;4994491;28;20033;-65
2022/07/12 09:53:44;;;;;;;2.80;1.05;;;;;;;38.64;28.09;102231.34;4994319;28;20034;-65
2022/07/12 09:56:11;;;;;;;1.75;1.42;;;;;;;38.83;28.29;102229.69;4994304;28;20023;-65
2022/07/12 09:58:40;;;;;;;3.78;1.30;;;;;;;38.98;27.91;102221.22;4994224;28;20026;-65
2022/07/12 10:01:06;;;;;;;1.25;1.15;;;;;;;39.13;27.93;102223.13;4997601;28;20547;-65
2022/07/12 10:03:32;;;;;;;3.85;1.58;;;;;;;39.27;26.42;102224.22;5013537;28;20073;-65
2022/07/12 10:06:00;;;;;;;1.67;1.55;;;;;;;39.52;26.43;102229.72;5013677;28;20069;-65
2022/07/12 10:08:25;;;;;;;3.63;1.98;;;;;;;39.79;26.82;102212.44;5029934;28;20025;-65
2022/07/12 10:10:51;;;;;;;35.45;32.90;;;;;;;40.25;26.88;102207.34;5014789;28;20037;-64
2022/07/12 10:13:18;;;;;;;101.95;96.80;;;;;;;40.96;26.08;102213.09;5013476;28;20030;-64
2022/07/12 10:15:44;;;;;;;11.48;10.73;;;;;;;41.72;25.44;102198.84;4997009;28;20026;-65
2022/07/12 10:18:21;;;;;;;2.92;1.20;;;;;;;42.83;24.11;102213.88;5013540;28;20033;-65
2022/07/12 10:20:48;;;;;;;2.25;0.75;;;;;;;43.86;23.03;102209.38;4996981;28;20079;-64
2022/07/12 10:23:25;;;;;;;3.40;0.98;;;;;;;43.20;23.20;102206.34;5013247;28;20491;-65
2022/07/12 10:25:51;;;;;;;2.58;0.80;;;;;;;42.69;23.54;102201.72;5014591;28;20117;-63
2022/07/12 10:28:17;;;;;;;1.13;1.10;;;;;;;42.32;23.83;102207.50;5013261;28;20495;-63
2022/07/12 10:30:47;;;;;;;4.40;1.20;;;;;;;42.15;24.05;102195.97;5013220;28;20107;-63
2022/07/12 10:33:20;;;;;;;1.57;1.47;;;;;;;42.11;24.33;102208.94;5029407;28;20080;-63
2022/07/12 10:36:00;;;;;;;5.57;5.18;;;;;;;42.31;24.07;102208.63;5013123;28;20034;-64
2022/07/12 10:38:26;;;;;;;1.58;1.42;;;;;;;42.42;24.14;102198.00;4996636;28;20029;-64
2022/07/12 10:40:52;;;;;;;2.40;2.20;;;;;;;42.58;23.37;102199.44;5013185;28;20084;-65
2022/07/12 10:44:04;;;;;;;3.83;1.92;;;;;;;42.65;23.70;102200.69;5013037;28;20088;-64
2022/07/12 10:46:14;;;;;;;2.10;1.60;;;;;;;42.75;23.21;102197.66;5013144;28;20045;-64
2022/07/12 10:48:39;;;;;;;1.48;1.38;;;;;;;42.79;23.68;102195.91;5029383;28;20026;-64
2022/07/12 10:51:21;;;;;;;2.05;1.90;;;;;;;43.10;23.02;102184.00;5012896;28;20079;-64
2022/07/12 10:53:50;;;;;;;1.80;1.70;;;;;;;43.18;23.51;102181.28;5012656;28;20037;-64
2022/07/12 10:56:24;;;;;;;2.80;1.48;;;;;;;43.18;22.82;102181.28;5029100;28;20021;-64
2022/07/12 10:58:50;;;;;;;1.50;1.40;;;;;;;43.16;22.79;102177.94;5012862;28;20022;-64
2022/07/12 11:01:23;;;;;;;1.20;0.90;;;;;;;42.91;22.66;102176.44;5013895;28;20044;-64
2022/07/12 11:03:51;;;;;;;1.30;0.85;;;;;;;42.54;23.27;102179.47;5028995;28;20079;-64
2022/07/12 11:06:18;;;;;;;3.30;1.20;;;;;;;42.53;22.87;102169.31;5028912;28;20022;-64
2022/07/12 11:08:53;;;;;;;1.70;1.35;;;;;;;42.59;22.85;102179.38;5012691;28;20022;-64
2022/07/12 11:11:19;;;;;;;3.05;1.05;;;;;;;42.84;22.28;102170.41;5013187;28;20030;-64
2022/07/12 11:13:45;;;;;;;1.75;1.20;;;;;;;43.08;22.41;102169.38;4980032;28;20072;-64
2022/07/12 11:16:10;;;;;;;1.35;1.25;;;;;;;43.25;22.20;102175.19;5028942;28;20104;-63
2022/07/12 11:18:36;;;;;;;3.03;0.95;;;;;;;43.34;22.33;102178.97;5012416;28;20036;-65
2022/07/12 11:21:02;;;;;;;1.48;1.10;;;;;;;43.54;22.11;102172.84;5028881;28;20045;-64
2022/07/12 11:23:29;;;;;;;1.77;1.17;;;;;;;43.83;21.91;102164.84;5012322;28;20030;-64
2022/07/12 11:25:59;;;;;;;1.15;1.02;;;;;;;44.07;21.42;102153.19;4996433;28;20555;-64
2022/07/12 11:28:29;;;;;;;0.85;0.85;;;;;;;44.20;21.49;102162.78;5012456;28;20077;-64